Time;durP1;ratioP1;P1;durP2;ratioP2;P2;SDS_P1;SDS_P2;PMS_P1;PMS_P2;Temp;Humidity;BMP_temperature;BMP_pressure;BME280_temperature;BME280_humidity;BME280_pressure;Samples;Min_cycle;Max_cycle;Signal;HPM_P1;HPM_P2
2021/12/17 00:04:30;;;;;;;13.75;11.90;;;11.70;71.80;;;;;;5028270;28;20049;-74
2021/12/17 00:06:56;;;;;;;14.57;13.07;;;11.70;71.70;;;;;;5027420;28;20029;-74
2021/12/17 00:09:23;;;;;;;15.50;12.80;;;11.70;71.70;;;;;;5028465;28;20055;-74
2021/12/17 00:11:49;;;;;;;14.23;12.82;;;11.70;71.70;;;;;;5009143;28;20044;-74
2021/12/17 00:14:25;;;;;;;14.20;12.70;;;11.70;71.60;;;;;;5022119;28;20397;-75
2021/12/17 00:16:51;;;;;;;14.80;13.27;;;11.70;71.70;;;;;;5028849;28;20111;-74
2021/12/17 00:19:28;;;;;;;15.00;12.07;;;11.70;71.60;;;;;;5025677;28;20040;-74
2021/12/17 00:49:00;;;;;;;15.10;13.50;;;11.80;71.60;;;;;;5026237;28;20544;-74
2021/12/17 00:54:31;;;;;;;15.05;13.27;;;11.70;71.40;;;;;;5026120;28;20115;-74
2021/12/17 00:57:00;;;;;;;14.55;12.95;;;11.70;71.40;;;;;;5027647;28;20392;-74
2021/12/17 00:59:26;;;;;;;14.07;12.68;;;11.70;71.40;;;;;;5026601;28;20055;-75
2021/12/17 01:01:56;;;;;;;15.60;13.43;;;11.70;71.40;;;;;;5026268;28;20029;-75
2021/12/17 01:04:22;;;;;;;14.57;13.07;;;11.70;71.40;;;;;;5009910;28;20060;-75
2021/12/17 01:06:49;;;;;;;14.75;13.18;;;11.70;71.40;;;;;;5026553;28;20037;-74
2021/12/17 01:09:17;;;;;;;14.55;13.02;;;11.70;71.40;;;;;;5027732;28;20034;-74
2021/12/17 01:11:44;;;;;;;14.55;13.05;;;11.70;71.40;;;;;;5026708;28;20037;-75
2021/12/17 01:14:30;;;;;;;14.05;12.65;;;11.70;71.40;;;;;;5025011;28;20045;-74
2021/12/17 01:17:17;;;;;;;14.27;12.77;;;11.70;71.40;;;;;;5026309;28;20044;-75
2021/12/17 01:25:48;;;;;;;13.82;12.20;;;11.70;71.30;;;;;;5025033;28;20073;-73
2021/12/17 01:43:05;;;;;;;13.60;12.10;;;11.60;71.00;;;;;;5026819;28;20381;-74
2021/12/17 01:45:36;;;;;;;13.30;11.50;;;11.60;71.00;;;;;;5025241;28;20033;-74
2021/12/17 01:48:07;;;;;;;13.57;12.23;;;11.60;71.00;;;;;;5026426;28;20025;-74
2021/12/17 02:01:18;;;;;;;12.98;11.55;;;11.60;71.10;;;;;;5025787;28;20300;-74
2021/12/17 02:03:46;;;;;;;13.05;11.85;;;11.60;71.10;;;;;;5024828;28;20053;-74
2021/12/17 02:06:12;;;;;;;12.52;11.32;;;11.60;71.10;;;;;;5025217;28;20044;-73
2021/12/17 02:08:38;;;;;;;13.98;12.48;;;11.60;71.10;;;;;;5026500;28;20033;-74
2021/12/17 02:32:18;;;;;;;12.07;10.82;;;11.60;70.90;;;;;;5016520;28;20092;-75
2021/12/17 02:37:20;;;;;;;14.57;11.45;;;11.60;70.90;;;;;;5007052;28;20030;-75
2021/12/17 02:48:11;;;;;;;12.80;11.50;;;11.60;70.90;;;;;;5026707;28;20107;-75
2021/12/17 02:50:50;;;;;;;11.82;10.73;;;11.60;70.80;;;;;;5029161;28;20048;-74
2021/12/17 02:53:19;;;;;;;12.20;10.60;;;11.60;70.90;;;;;;5029504;28;20038;-75
2021/12/17 02:55:50;;;;;;;11.10;10.07;;;11.60;70.90;;;;;;5028030;28;20069;-75
2021/12/17 02:58:17;;;;;;;13.43;11.43;;;11.60;70.80;;;;;;5029219;28;20029;-74
2021/12/17 03:00:44;;;;;;;13.15;11.95;;;11.60;70.80;;;;;;5028398;28;20025;-75
2021/12/17 03:03:12;;;;;;;13.40;12.10;;;11.60;70.80;;;;;;5027020;28;20041;-75
2021/12/17 03:05:40;;;;;;;13.23;11.93;;;11.60;70.80;;;;;;5028888;28;20503;-74
2021/12/17 03:08:12;;;;;;;13.57;11.90;;;11.60;70.80;;;;;;5011131;28;20116;-74
2021/12/17 03:10:38;;;;;;;13.13;11.65;;;11.60;70.80;;;;;;5030585;28;20115;-74
2021/12/17 03:13:04;;;;;;;13.05;11.75;;;11.60;70.80;;;;;;5030504;28;20484;-74
2021/12/17 03:15:55;;;;;;;13.23;11.82;;;11.60;70.80;;;;;;5029502;28;20029;-74
2021/12/17 03:24:00;;;;;;;13.32;11.93;;;11.60;70.70;;;;;;5028899;28;20481;-75
2021/12/17 03:26:29;;;;;;;14.23;12.73;;;11.60;70.70;;;;;;5029160;28;20056;-73
2021/12/17 03:29:04;;;;;;;13.60;12.20;;;11.60;70.70;;;;;;5012472;28;20091;-74
2021/12/17 03:31:33;;;;;;;14.02;12.52;;;11.60;70.70;;;;;;5032238;28;20090;-75
2021/12/17 03:34:17;;;;;;;13.35;12.00;;;11.60;70.70;;;;;;5034269;28;20497;-74
2021/12/17 03:36:44;;;;;;;15.60;13.55;;;11.60;70.70;;;;;;5016720;28;20091;-75
2021/12/17 03:39:10;;;;;;;12.52;11.27;;;11.50;70.50;;;;;;5014935;28;20037;-74
2021/12/17 03:41:38;;;;;;;14.65;13.15;;;11.50;70.50;;;;;;5014365;28;20026;-75
2021/12/17 03:44:08;;;;;;;12.90;11.55;;;11.50;70.50;;;;;;5012691;28;20041;-74
2021/12/17 03:46:57;;;;;;;15.43;13.68;;;11.50;70.50;;;;;;5012657;28;20112;-74
2021/12/17 03:49:23;;;;;;;14.48;12.98;;;11.50;70.50;;;;;;5012662;28;20493;-75
2021/12/17 03:52:04;;;;;;;13.85;12.35;;;11.50;70.50;;;;;;5029664;28;20091;-75
2021/12/17 03:54:35;;;;;;;13.90;12.52;;;11.50;70.50;;;;;;5029547;28;20037;-75
2021/12/17 03:57:05;;;;;;;13.98;12.40;;;11.50;70.50;;;;;;5012622;28;20045;-75
2021/12/17 03:59:33;;;;;;;14.38;12.93;;;11.50;70.50;;;;;;5012657;28;20458;-74
2021/12/17 04:02:00;;;;;;;14.35;12.85;;;11.50;70.50;;;;;;4996524;28;20474;-75
2021/12/17 04:04:26;;;;;;;13.68;12.35;;;11.50;70.50;;;;;;5029226;28;20046;-75
2021/12/17 04:07:12;;;;;;;14.52;13.13;;;11.50;70.50;;;;;;5013345;28;20045;-74
2021/12/17 04:09:56;;;;;;;14.07;12.57;;;11.50;70.50;;;;;;5014349;28;20022;-74
2021/12/17 04:12:34;;;;;;;14.55;12.52;;;11.50;70.50;;;;;;5012701;28;20033;-75
2021/12/17 04:15:09;;;;;;;15.05;12.80;;;11.50;70.40;;;;;;5012450;28;20033;-74
2021/12/17 04:17:43;;;;;;;14.43;12.98;;;11.50;70.40;;;;;;5011621;28;20029;-75
2021/12/17 04:20:09;;;;;;;12.95;11.65;;;11.50;70.40;;;;;;5013429;28;20379;-75
2021/12/17 04:22:36;;;;;;;13.57;12.10;;;11.50;70.40;;;;;;5020124;28;20033;-74
2021/12/17 04:25:03;;;;;;;13.65;12.20;;;11.50;70.40;;;;;;5032019;28;20120;-75
2021/12/17 04:27:28;;;;;;;13.55;12.15;;;11.50;70.40;;;;;;5033093;28;20412;-75
2021/12/17 04:29:57;;;;;;;14.07;12.68;;;11.50;70.40;;;;;;5032186;28;20416;-74
2021/12/17 04:32:23;;;;;;;13.82;12.40;;;11.50;70.40;;;;;;5031316;28;20059;-74
2021/12/17 04:34:50;;;;;;;14.40;12.55;;;11.50;70.40;;;;;;5031898;28;20038;-74
2021/12/17 04:37:19;;;;;;;13.63;12.25;;;11.50;70.40;;;;;;5031861;28;20029;-74
2021/12/17 04:39:52;;;;;;;12.73;11.52;;;11.50;70.40;;;;;;5031453;28;20112;-74
2021/12/17 04:42:32;;;;;;;13.60;12.18;;;11.40;70.20;;;;;;5031458;28;20041;-75
2021/12/17 04:44:59;;;;;;;13.40;12.10;;;11.40;70.20;;;;;;4998655;28;20087;-75
2021/12/17 04:58:31;;;;;;;12.48;11.18;;;11.40;70.20;;;;;;5031298;28;20516;-73
2021/12/17 05:00:58;;;;;;;12.50;11.23;;;11.40;70.20;;;;;;5031730;28;20374;-74
2021/12/17 05:03:26;;;;;;;13.38;12.07;;;11.40;70.20;;;;;;5031107;28;20120;-74
2021/12/17 05:05:53;;;;;;;12.18;10.80;;;11.40;70.10;;;;;;5031199;28;20112;-74
2021/12/17 05:08:25;;;;;;;12.77;11.48;;;11.40;70.10;;;;;;5031576;28;20037;-74
2021/12/17 05:11:21;;;;;;;12.65;11.27;;;11.40;70.10;;;;;;5030508;28;20030;-74
2021/12/17 05:19:47;;;;;;;13.13;11.80;;;11.40;70.00;;;;;;4977051;28;20025;-74
2021/12/17 05:22:13;;;;;;;14.45;12.95;;;11.40;70.10;;;;;;5028124;28;20493;-75
2021/12/17 05:24:40;;;;;;;13.00;11.50;;;11.40;70.00;;;;;;5030856;28;20034;-74
2021/12/17 05:27:07;;;;;;;12.52;11.23;;;11.40;70.00;;;;;;5030964;28;20083;-75
2021/12/17 05:29:39;;;;;;;13.30;10.88;;;11.40;70.10;;;;;;5030471;28;20034;-75
2021/12/17 05:32:06;;;;;;;12.73;11.43;;;11.30;69.90;;;;;;5030581;28;20029;-74
2021/12/17 05:34:34;;;;;;;13.73;11.75;;;11.40;70.00;;;;;;5030840;28;20036;-75
2021/12/17 05:37:06;;;;;;;13.45;12.05;;;11.40;70.10;;;;;;5030571;28;20547;-75
2021/12/17 05:39:32;;;;;;;17.20;12.93;;;11.30;69.90;;;;;;5014090;28;20033;-75
2021/12/17 05:42:01;;;;;;;12.30;11.10;;;11.30;69.90;;;;;;5031651;28;20033;-74
2021/12/17 05:44:45;;;;;;;12.95;11.75;;;11.30;69.90;;;;;;5030406;28;20029;-74
2021/12/17 05:47:12;;;;;;;13.45;11.40;;;11.30;69.90;;;;;;5027245;28;20039;-75
2021/12/17 05:49:38;;;;;;;12.80;11.48;;;11.30;69.90;;;;;;5023702;28;20697;-74
2021/12/17 05:52:05;;;;;;;12.68;11.05;;;11.30;69.90;;;;;;5006589;28;20038;-74
2021/12/17 05:54:33;;;;;;;13.25;11.82;;;11.30;69.90;;;;;;5007155;28;20041;-74
2021/12/17 05:56:59;;;;;;;12.27;10.75;;;11.30;69.90;;;;;;4990796;28;20037;-75
2021/12/17 05:59:34;;;;;;;12.52;11.23;;;11.30;69.90;;;;;;5004397;28;20117;-74
2021/12/17 06:02:01;;;;;;;12.75;11.43;;;11.30;69.90;;;;;;5023580;28;20038;-73
2021/12/17 06:04:29;;;;;;;12.50;11.27;;;11.30;69.80;;;;;;5025214;28;20584;-74
2021/12/17 06:07:01;;;;;;;13.45;12.13;;;11.30;69.80;;;;;;5025674;28;20040;-75
2021/12/17 06:09:27;;;;;;;13.15;11.85;;;11.30;69.80;;;;;;5026491;28;20057;-74
2021/12/17 06:11:54;;;;;;;12.57;11.25;;;11.30;69.70;;;;;;5008895;28;20397;-74
2021/12/17 06:14:20;;;;;;;13.27;11.27;;;11.30;69.70;;;;;;5024802;28;20061;-75
2021/12/17 06:16:46;;;;;;;13.10;10.95;;;11.30;69.70;;;;;;5024018;28;20034;-74
2021/12/17 06:19:20;;;;;;;13.65;11.75;;;11.30;69.70;;;;;;5024886;28;20038;-75
2021/12/17 06:21:47;;;;;;;12.05;10.75;;;11.30;70.20;;;;;;5022769;28;20056;-74
2021/12/17 06:24:14;;;;;;;12.60;11.40;;;11.30;69.70;;;;;;5024734;28;20604;-74
2021/12/17 06:26:41;;;;;;;12.50;11.25;;;11.30;69.70;;;;;;5024046;28;20030;-75
2021/12/17 06:29:07;;;;;;;13.35;12.05;;;11.30;69.70;;;;;;5007774;28;20256;-76
2021/12/17 06:31:33;;;;;;;12.18;10.98;;;11.30;69.70;;;;;;5023810;28;20136;-75
2021/12/17 06:34:00;;;;;;;14.23;12.55;;;11.30;69.70;;;;;;5025017;28;20640;-74
2021/12/17 06:36:27;;;;;;;12.82;11.43;;;11.30;69.80;;;;;;5025796;28;20469;-75
2021/12/17 06:38:53;;;;;;;14.68;13.18;;;11.30;70.00;;;;;;5008553;28;20493;-73
2021/12/17 06:41:22;;;;;;;12.23;10.85;;;11.40;70.40;;;;;;5024892;28;20120;-75
2021/12/17 06:43:48;;;;;;;13.38;12.00;;;11.40;70.80;;;;;;5024427;28;20607;-76
2021/12/17 06:48:41;;;;;;;12.80;11.43;;;11.50;71.00;;;;;;5020825;28;20137;-75
2021/12/17 07:00:06;;;;;;;16.77;13.85;;;11.50;70.90;;;;;;5025698;28;20617;-75
2021/12/17 07:05:58;;;;;;;14.05;11.13;;;11.50;70.90;;;;;;5028228;28;20029;-75
2021/12/17 07:17:08;;;;;;;13.70;12.30;;;11.50;70.80;;;;;;5027731;28;20025;-75
2021/12/17 07:17:36;;;;;;;13.55;12.10;;;11.50;70.70;;;;;;5007560;28;20037;-74
2021/12/17 07:20:50;;;;;;;14.18;12.70;;;11.50;70.70;;;;;;5027153;28;20068;-75
2021/12/17 07:23:11;;;;;;;13.90;12.48;;;11.50;70.70;;;;;;5025451;28;20036;-76
2021/12/17 07:34:09;;;;;;;14.57;12.68;;;11.50;70.60;;;;;;5031298;28;20045;-74
2021/12/17 07:36:45;;;;;;;17.67;13.45;;;11.40;70.40;;;;;;5028152;28;20025;-74
2021/12/17 07:39:15;;;;;;;16.27;13.23;;;11.50;70.60;;;;;;5028567;28;20037;-74
2021/12/17 07:41:59;;;;;;;14.25;12.85;;;11.40;70.40;;;;;;5028307;28;20120;-74
2021/12/17 07:44:35;;;;;;;15.43;13.40;;;11.40;70.30;;;;;;5028972;28;20025;-75
2021/12/17 07:47:27;;;;;;;14.95;13.30;;;11.40;70.30;;;;;;5027058;28;20033;-75
2021/12/17 07:50:12;;;;;;;14.15;12.65;;;11.40;70.30;;;;;;5027401;28;20045;-75
2021/12/17 07:53:14;;;;;;;14.05;12.63;;;11.40;70.20;;;;;;5023841;28;20385;-76
2021/12/17 07:55:58;;;;;;;14.73;13.15;;;11.40;70.20;;;;;;5027259;28;20036;-75
2021/12/17 07:58:24;;;;;;;15.05;13.40;;;11.50;70.40;;;;;;5027224;28;20477;-75
2021/12/17 08:00:50;;;;;;;14.77;13.27;;;11.50;70.40;;;;;;5027341;28;20389;-74
2021/12/17 08:03:16;;;;;;;15.77;14.02;;;11.50;70.30;;;;;;5026577;28;20029;-74
2021/12/17 08:05:52;;;;;;;15.02;13.52;;;11.50;70.20;;;;;;5027066;28;20060;-74
2021/12/17 08:08:19;;;;;;;15.68;13.90;;;11.50;70.20;;;;;;5026696;28;20182;-75
2021/12/17 08:10:54;;;;;;;14.73;13.23;;;11.50;70.20;;;;;;5018317;28;20068;-74
2021/12/17 08:13:24;;;;;;;15.18;13.57;;;11.50;70.10;;;;;;5026268;28;20045;-74
2021/12/17 08:16:06;;;;;;;14.48;12.40;;;11.50;70.10;;;;;;5026084;28;20066;-73
2021/12/17 08:32:06;;;;;;;15.07;13.48;;;11.40;69.80;;;;;;5026377;28;20428;-75
2021/12/17 08:34:41;;;;;;;15.13;13.52;;;11.40;69.80;;;;;;5011900;28;20056;-75
2021/12/17 08:37:10;;;;;;;14.57;13.05;;;11.40;69.80;;;;;;5026699;28;20026;-75
2021/12/17 08:39:38;;;;;;;16.70;14.20;;;11.40;69.70;;;;;;5024897;28;20033;-75
2021/12/17 08:42:33;;;;;;;17.38;15.02;;;11.40;69.70;;;;;;5015303;28;20505;-75
2021/12/17 08:45:03;;;;;;;15.27;13.52;;;11.50;69.90;;;;;;5014027;28;20037;-74
2021/12/17 08:47:49;;;;;;;15.38;13.88;;;11.50;69.80;;;;;;5027451;28;20478;-75
2021/12/17 08:50:25;;;;;;;15.52;14.02;;;11.50;69.80;;;;;;5025221;28;20520;-75
2021/12/17 08:52:53;;;;;;;15.25;13.73;;;11.50;69.80;;;;;;5024956;28;20033;-74
2021/12/17 08:55:20;;;;;;;14.65;13.25;;;11.50;69.70;;;;;;5023352;28;20389;-75
2021/12/17 08:57:47;;;;;;;17.77;14.60;;;11.50;69.60;;;;;;5024875;28;20025;-75
2021/12/17 09:00:13;;;;;;;15.00;13.50;;;11.50;69.60;;;;;;5027874;28;20408;-74
2021/12/17 09:02:59;;;;;;;16.58;14.85;;;11.50;69.50;;;;;;5026575;28;20056;-74
2021/12/17 09:05:48;;;;;;;17.17;15.45;;;11.60;69.70;;;;;;5017137;28;20045;-75
2021/12/17 09:08:21;;;;;;;18.85;14.98;;;11.50;69.40;;;;;;5010474;28;20037;-74
2021/12/17 09:10:59;;;;;;;16.90;13.98;;;11.60;69.50;;;;;;5026167;28;20493;-74
2021/12/17 09:13:44;;;;;;;15.88;14.20;;;11.60;69.50;;;;;;5025950;28;20481;-74
2021/12/17 09:16:13;;;;;;;15.10;13.50;;;11.60;69.90;;;;;;5026059;28;20489;-75
2021/12/17 09:18:40;;;;;;;16.88;14.60;;;11.60;69.40;;;;;;5026683;28;20037;-75
2021/12/17 09:21:31;;;;;;;18.23;16.10;;;11.60;69.30;;;;;;5026100;28;20116;-74
2021/12/17 09:24:23;;;;;;;16.48;14.27;;;11.70;69.50;;;;;;5025847;28;20509;-76
2021/12/17 09:27:28;;;;;;;17.33;15.52;;;11.70;69.40;;;;;;5003428;28;20200;-75
2021/12/17 09:30:09;;;;;;;16.55;14.95;;;11.70;69.40;;;;;;4989617;28;20498;-74
2021/12/17 09:32:35;;;;;;;19.70;15.55;;;11.70;69.30;;;;;;5016507;28;20100;-75
2021/12/17 09:35:01;;;;;;;17.17;15.35;;;11.70;69.30;;;;;;5025844;28;20701;-75
2021/12/17 09:37:27;;;;;;;16.38;14.68;;;11.70;69.20;;;;;;5026804;28;20049;-74
2021/12/17 09:39:53;;;;;;;16.73;15.07;;;11.70;69.20;;;;;;5026585;28;20029;-75
2021/12/17 09:42:19;;;;;;;17.30;14.85;;;11.70;69.20;;;;;;5021990;28;20032;-75
2021/12/17 09:44:45;;;;;;;17.63;15.80;;;11.80;69.20;;;;;;5025359;28;20041;-75
2021/12/17 09:47:11;;;;;;;16.17;14.50;;;11.80;69.20;;;;;;5025879;28;20029;-75
2021/12/17 09:49:55;;;;;;;15.95;14.35;;;11.80;69.20;;;;;;5138806;27;20776;-73
2021/12/17 09:52:22;;;;;;;15.52;13.20;;;11.90;69.20;;;;;;5120817;27;20127;-72
2021/12/17 09:54:48;;;;;;;17.92;13.38;;;11.90;69.30;;;;;;5104001;28;20031;-71
2021/12/17 09:57:14;;;;;;;16.25;14.25;;;12.00;69.70;;;;;;5103898;28;20362;-72
2021/12/17 09:59:40;;;;;;;14.38;12.52;;;12.10;69.90;;;;;;5105535;28;20093;-71
2021/12/17 10:02:06;;;;;;;14.48;12.95;;;12.20;70.00;;;;;;5121749;28;20076;-73
2021/12/17 10:04:33;;;;;;;15.20;12.50;;;12.30;69.90;;;;;;5124994;27;20023;-72
2021/12/17 10:07:30;;;;;;;15.18;13.57;;;12.30;69.80;;;;;;5125023;27;20184;-73
2021/12/17 10:09:57;;;;;;;15.23;13.05;;;12.40;69.80;;;;;;5124274;28;20413;-72
2021/12/17 10:12:25;;;;;;;14.27;12.90;;;12.40;69.70;;;;;;5123642;28;20027;-72
2021/12/17 10:15:05;;;;;;;15.68;13.25;;;12.40;69.60;;;;;;5123525;27;20038;-72
2021/12/17 10:17:32;;;;;;;15.32;13.73;;;12.40;69.50;;;;;;5123143;27;20531;-71
2021/12/17 10:19:58;;;;;;;13.93;12.52;;;12.40;69.50;;;;;;5121229;28;20050;-73
2021/12/17 10:22:25;;;;;;;14.57;13.07;;;12.50;69.60;;;;;;5121823;28;20031;-72
2021/12/17 10:25:09;;;;;;;15.15;13.25;;;12.50;69.50;;;;;;5123423;28;20035;-72
2021/12/17 10:27:38;;;;;;;14.85;13.38;;;12.50;69.40;;;;;;5122540;28;20035;-72
2021/12/17 10:30:19;;;;;;;16.02;14.40;;;12.50;69.40;;;;;;5102857;28;20394;-73
2021/12/17 10:32:48;;;;;;;15.55;13.75;;;12.50;69.20;;;;;;5108871;28;20171;-72
2021/12/17 10:35:17;;;;;;;14.73;12.95;;;12.60;69.40;;;;;;5122006;28;20040;-72
2021/12/17 10:37:49;;;;;;;15.40;13.88;;;12.50;69.70;;;;;;5122762;27;20050;-73
2021/12/17 10:40:21;;;;;;;15.27;13.73;;;12.60;69.20;;;;;;5121939;28;20024;-73
2021/12/17 10:42:55;;;;;;;14.80;13.30;;;12.60;69.10;;;;;;5123058;27;20035;-72
2021/12/17 10:45:27;;;;;;;15.27;13.77;;;12.70;69.20;;;;;;5121339;28;20846;-72
2021/12/17 10:48:22;;;;;;;16.00;14.20;;;12.70;69.20;;;;;;5126887;27;20051;-71
2021/12/17 10:51:03;;;;;;;16.05;14.43;;;12.70;69.00;;;;;;5143332;27;20027;-71
2021/12/17 10:53:29;;;;;;;16.38;14.80;;;12.80;69.10;;;;;;5131703;27;20541;-71
2021/12/17 10:55:56;;;;;;;16.63;14.70;;;12.80;69.00;;;;;;5123345;27;20391;-71
2021/12/17 10:58:23;;;;;;;16.20;14.23;;;12.80;68.90;;;;;;5129452;27;20153;-71
2021/12/17 11:01:07;;;;;;;14.63;13.05;;;12.90;69.00;;;;;;5125146;27;20473;-74
2021/12/17 11:03:43;;;;;;;15.57;14.00;;;12.90;68.80;;;;;;5087183;28;20487;-73
2021/12/17 11:06:09;;;;;;;16.42;13.57;;;13.00;68.90;;;;;;5087502;28;20036;-72
2021/12/17 11:08:37;;;;;;;16.38;14.85;;;13.00;68.80;;;;;;5107263;28;20051;-72
2021/12/17 11:11:11;;;;;;;15.88;14.38;;;13.00;68.70;;;;;;5107121;28;20024;-73
2021/12/17 11:13:56;;;;;;;14.15;12.77;;;13.00;68.50;;;;;;5107021;28;20038;-73
2021/12/17 11:16:22;;;;;;;17.17;14.30;;;13.10;68.60;;;;;;5107131;28;20024;-74
2021/12/17 11:18:49;;;;;;;14.80;13.23;;;13.10;68.50;;;;;;5116966;27;20477;-72
2021/12/17 11:21:15;;;;;;;15.57;13.48;;;13.10;68.50;;;;;;5112720;27;20455;-73
2021/12/17 11:23:45;;;;;;;16.08;14.38;;;13.10;68.40;;;;;;5120232;27;20062;-72
2021/12/17 11:26:11;;;;;;;15.48;13.70;;;13.10;68.40;;;;;;5106095;28;20118;-71
2021/12/17 11:28:37;;;;;;;15.63;14.13;;;13.20;68.40;;;;;;5107881;28;20032;-72
2021/12/17 11:31:03;;;;;;;14.82;13.27;;;13.20;68.30;;;;;;5108222;28;20392;-73
2021/12/17 11:33:30;;;;;;;12.52;11.20;;;13.20;68.30;;;;;;5108576;28;20123;-72
2021/12/17 11:35:57;;;;;;;12.98;11.15;;;13.20;68.40;;;;;;5108557;28;20023;-72
2021/12/17 11:38:34;;;;;;;10.93;9.82;;;13.30;69.10;;;;;;5108424;28;20036;-73
2021/12/17 11:41:09;;;;;;;11.40;10.20;;;13.50;69.60;;;;;;5109183;28;20031;-73
2021/12/17 11:43:57;;;;;;;10.80;9.80;;;13.70;69.60;;;;;;5107704;27;20055;-72
2021/12/17 11:46:32;;;;;;;12.95;10.95;;;13.80;69.50;;;;;;5107833;28;20537;-73
2021/12/17 11:49:09;;;;;;;10.85;9.73;;;13.90;69.50;;;;;;5107027;28;20077;-73
2021/12/17 11:51:36;;;;;;;10.93;9.88;;;13.90;69.30;;;;;;5107957;28;20528;-73
2021/12/17 11:54:26;;;;;;;13.88;11.50;;;13.90;69.20;;;;;;5106727;28;20397;-72
2021/12/17 11:56:55;;;;;;;11.40;10.20;;;14.00;69.30;;;;;;5089262;28;20028;-72
2021/12/17 11:59:27;;;;;;;11.77;10.57;;;14.00;69.20;;;;;;5104958;28;20577;-71
2021/12/17 12:02:05;;;;;;;12.68;10.45;;;14.00;69.10;;;;;;5094744;28;20043;-72
2021/12/17 12:04:31;;;;;;;12.25;11.00;;;14.00;69.10;;;;;;5086947;28;20360;-72
2021/12/17 12:07:02;;;;;;;12.82;10.27;;;14.00;69.10;;;;;;5069788;28;20456;-72
2021/12/17 12:12:26;;;;;;;13.02;11.65;;;14.00;68.80;;;;;;5106561;28;20024;-72
2021/12/17 12:14:52;;;;;;;14.15;12.68;;;14.00;68.90;;;;;;5106878;28;20081;-73
2021/12/17 12:17:55;;;;;;;12.63;11.32;;;14.10;69.00;;;;;;5107551;28;20031;-73
2021/12/17 12:20:40;;;;;;;12.27;10.98;;;14.00;68.60;;;;;;5100053;28;20664;-74
2021/12/17 12:23:33;;;;;;;14.10;11.60;;;14.10;68.70;;;;;;5096519;28;20108;-72
2021/12/17 12:26:05;;;;;;;14.93;12.30;;;14.00;68.40;;;;;;5104455;28;20397;-72
2021/12/17 12:28:49;;;;;;;15.07;12.43;;;14.10;68.70;;;;;;5107503;28;20035;-72
2021/12/17 12:31:24;;;;;;;12.10;10.90;;;14.10;68.50;;;;;;5107030;28;20110;-73
2021/12/17 12:37:00;;;;;;;13.70;12.30;;;14.10;68.30;;;;;;5099428;28;20023;-73
2021/12/17 12:39:29;;;;;;;14.18;12.40;;;14.10;68.20;;;;;;5107937;28;20103;-73
2021/12/17 12:41:57;;;;;;;13.32;12.05;;;14.20;68.40;;;;;;5107327;28;20024;-73
2021/12/17 12:44:44;;;;;;;14.75;13.25;;;14.10;68.20;;;;;;5100074;28;20028;-73
2021/12/17 12:47:36;;;;;;;14.85;13.35;;;14.20;68.20;;;;;;5102701;28;20116;-72
2021/12/17 12:50:12;;;;;;;14.65;13.07;;;14.20;68.10;;;;;;5121820;27;20050;-73
2021/12/17 12:52:45;;;;;;;14.35;12.95;;;14.20;68.10;;;;;;5127577;27;20039;-72
2021/12/17 12:55:27;;;;;;;;;;;14.20;68.10;;;;;;5126809;27;20031;-72
2021/12/17 12:57:59;;;;;;;15.13;13.60;;;14.10;67.90;;;;;;5127435;27;20407;-73
2021/12/17 13:00:47;;;;;;;14.57;13.13;;;14.10;68.00;;;;;;5128032;27;20435;-72
2021/12/17 13:03:22;;;;;;;15.40;13.80;;;14.20;68.00;;;;;;5128944;27;20289;-73
2021/12/17 13:05:49;;;;;;;15.68;13.98;;;14.10;67.80;;;;;;5132844;27;20023;-73
2021/12/17 13:08:19;;;;;;;15.75;13.95;;;14.20;68.00;;;;;;5131443;27;20066;-72
2021/12/17 13:10:55;;;;;;;16.15;14.57;;;14.20;67.90;;;;;;5129943;27;20058;-72
2021/12/17 13:24:13;;;;;;;15.52;13.93;;;14.20;67.60;;;;;;5120747;27;20027;-72
2021/12/17 13:26:59;;;;;;;17.70;15.90;;;14.20;67.50;;;;;;5100852;28;20035;-72
2021/12/17 13:29:38;;;;;;;17.02;15.32;;;14.10;67.20;;;;;;5099897;28;20039;-72
2021/12/17 13:32:11;;;;;;;16.33;14.70;;;14.20;67.40;;;;;;5106518;28;20024;-73
2021/12/17 13:34:41;;;;;;;17.10;15.40;;;14.20;67.50;;;;;;5106557;28;20042;-72
2021/12/17 13:37:14;;;;;;;18.00;16.20;;;14.10;67.30;;;;;;5106528;28;20031;-72
2021/12/17 13:39:53;;;;;;;16.55;14.88;;;14.10;67.30;;;;;;5106471;28;20031;-74
2021/12/17 13:42:29;;;;;;;16.48;14.85;;;14.10;67.30;;;;;;5106942;28;20024;-72
2021/12/17 13:45:04;;;;;;;18.50;16.63;;;14.10;67.30;;;;;;5106605;28;20491;-72
2021/12/17 13:47:38;;;;;;;18.50;15.60;;;14.10;67.30;;;;;;5118053;22;20039;-74
2021/12/17 13:50:12;;;;;;;17.25;15.55;;;14.10;67.30;;;;;;5043577;28;20045;-75
2021/12/17 13:52:55;;;;;;;17.23;15.60;;;14.10;67.30;;;;;;5045142;28;20231;-74
2021/12/17 13:55:28;;;;;;;18.38;16.45;;;14.00;67.10;;;;;;5028193;28;20052;-74
2021/12/17 13:57:55;;;;;;;17.98;16.08;;;14.00;67.10;;;;;;5045816;28;20419;-74
2021/12/17 14:00:23;;;;;;;16.85;15.25;;;14.00;67.10;;;;;;5045331;28;20171;-74
2021/12/17 14:02:50;;;;;;;18.45;16.63;;;14.00;67.10;;;;;;5027705;28;20037;-74
2021/12/17 14:05:26;;;;;;;18.83;16.83;;;14.00;67.10;;;;;;5045495;28;20083;-74
2021/12/17 14:07:55;;;;;;;18.90;16.95;;;14.00;67.10;;;;;;5045212;28;20040;-75
2021/12/17 14:10:28;;;;;;;18.80;16.92;;;13.90;66.90;;;;;;5045893;28;20047;-73
2021/12/17 14:12:54;;;;;;;17.27;15.45;;;13.90;66.90;;;;;;5027943;28;20566;-75
2021/12/17 14:15:28;;;;;;;18.77;16.98;;;13.90;67.00;;;;;;5045928;28;20037;-74
2021/12/17 14:18:00;;;;;;;17.90;16.10;;;13.80;67.30;;;;;;5030151;28;20524;-75
2021/12/17 14:20:30;;;;;;;17.33;15.55;;;13.80;66.80;;;;;;5025947;28;20030;-75
2021/12/17 14:23:04;;;;;;;18.10;15.85;;;13.80;66.80;;;;;;5008411;28;20084;-75
2021/12/17 14:25:39;;;;;;;18.35;16.42;;;13.80;66.60;;;;;;5025994;28;20056;-75
2021/12/17 14:28:27;;;;;;;19.30;17.17;;;13.70;66.00;;;;;;5006919;28;20033;-74
2021/12/17 14:30:58;;;;;;;17.48;15.68;;;13.70;65.80;;;;;;5021489;28;20044;-75
2021/12/17 14:33:51;;;;;;;17.63;15.93;;;13.60;65.80;;;;;;5023608;28;20033;-74
2021/12/17 14:36:38;;;;;;;18.33;16.42;;;13.60;65.60;;;;;;5029274;28;20029;-75
2021/12/17 14:39:16;;;;;;;18.67;15.60;;;13.60;65.50;;;;;;5028879;28;20485;-76
2021/12/17 14:41:55;;;;;;;16.73;14.93;;;13.60;65.60;;;;;;5011531;28;20553;-75
2021/12/17 14:47:04;;;;;;;17.70;15.88;;;13.60;65.60;;;;;;5028823;28;20040;-75
2021/12/17 15:00:51;;;;;;;19.42;17.42;;;13.40;65.30;;;;;;5026911;28;20509;-74
2021/12/17 15:05:57;;;;;;;17.05;15.25;;;13.40;65.40;;;;;;5028244;28;20128;-74
2021/12/17 15:08:24;;;;;;;17.88;15.73;;;13.40;65.50;;;;;;5011170;28;20042;-75
2021/12/17 15:10:50;;;;;;;17.65;15.82;;;13.30;65.40;;;;;;5028038;28;20026;-75
2021/12/17 15:13:16;;;;;;;18.73;16.73;;;13.30;65.40;;;;;;5028213;28;20519;-75
2021/12/17 15:15:42;;;;;;;18.35;16.52;;;13.30;65.50;;;;;;5029132;28;20488;-75
2021/12/17 15:18:19;;;;;;;16.52;14.75;;;13.20;65.30;;;;;;5028066;28;20083;-75
2021/12/17 15:20:48;;;;;;;17.70;15.90;;;13.20;65.40;;;;;;5028106;28;20504;-74
2021/12/17 15:23:15;;;;;;;17.73;15.82;;;13.20;66.00;;;;;;5009726;28;20034;-75
2021/12/17 15:25:42;;;;;;;17.35;15.10;;;13.10;65.40;;;;;;5028317;28;20238;-74
2021/12/17 15:28:10;;;;;;;16.90;15.23;;;13.10;65.50;;;;;;5027500;28;20984;-75
2021/12/17 15:30:40;;;;;;;18.42;16.38;;;13.10;65.50;;;;;;5028263;28;20684;-74
2021/12/17 15:33:07;;;;;;;17.92;16.15;;;13.00;66.00;;;;;;5005637;28;20029;-74
2021/12/17 15:35:34;;;;;;;17.75;15.85;;;13.00;65.50;;;;;;5007475;28;20044;-75
2021/12/17 15:38:01;;;;;;;17.40;15.57;;;13.00;65.60;;;;;;5008721;28;20034;-74
2021/12/17 15:40:27;;;;;;;14.50;12.98;;;12.90;65.50;;;;;;5028103;28;20371;-75
2021/12/17 15:43:02;;;;;;;15.68;14.07;;;12.80;65.50;;;;;;5024282;28;20942;-75
2021/12/17 15:45:29;;;;;;;16.45;13.10;;;12.90;66.10;;;;;;5016001;28;20505;-75
2021/12/17 15:47:55;;;;;;;14.02;12.70;;;12.90;66.20;;;;;;5008918;28;20057;-74
2021/12/17 15:50:21;;;;;;;13.98;12.55;;;12.90;66.30;;;;;;5027573;28;20507;-75
2021/12/17 15:52:47;;;;;;;14.32;12.93;;;12.90;66.30;;;;;;5027273;28;20041;-74
2021/12/17 15:55:20;;;;;;;15.10;12.98;;;12.90;66.40;;;;;;5027897;28;20420;-76
2021/12/17 15:57:46;;;;;;;15.02;13.45;;;12.90;66.40;;;;;;5009818;28;20029;-74
2021/12/17 16:00:15;;;;;;;15.43;13.43;;;12.80;66.30;;;;;;5025661;28;20080;-73
2021/12/17 16:02:42;;;;;;;15.63;13.98;;;12.80;66.40;;;;;;5027783;28;20039;-74
2021/12/17 16:05:11;;;;;;;14.85;13.27;;;12.80;66.50;;;;;;5024440;28;20388;-74
2021/12/17 16:07:37;;;;;;;15.23;13.70;;;12.70;66.80;;;;;;5019864;28;20096;-74
2021/12/17 16:21:26;;;;;;;14.02;12.70;;;12.50;66.30;;;;;;4938832;28;20439;-74